createdAt,value
2018-03-03T00:03:49.919Z,1004.7
2018-03-03T00:08:49.911Z,1004.7
2018-03-03T00:13:49.924Z,1004.7
2018-03-03T00:18:50.108Z,1004.7
2018-03-03T00:23:50.089Z,1004.8
2018-03-03T00:28:49.933Z,1004.8
2018-03-03T00:33:49.954Z,1004.8
2018-03-03T00:38:50.262Z,1004.8
2018-03-03T00:43:50.184Z,1004.8
2018-03-03T00:48:50.110Z,1004.8
2018-03-03T00:53:49.964Z,1004.8
2018-03-03T00:58:49.963Z,1004.8
2018-03-03T01:03:50.187Z,1004.9
2018-03-03T01:08:49.978Z,1005
2018-03-03T01:13:50.053Z,1004.9
2018-03-03T01:18:50.209Z,1004.9
2018-03-03T01:23:50.115Z,1005
2018-03-03T01:28:49.912Z,1005
2018-03-03T01:33:50.160Z,1005
2018-03-03T01:38:50.091Z,1005
2018-03-03T01:43:50.131Z,1005.2
2018-03-03T01:48:50.136Z,1005.2
2018-03-03T01:53:50.067Z,1005.2
2018-03-03T01:58:49.970Z,1005.3
2018-03-03T02:03:49.980Z,1005.3
2018-03-03T02:08:50.092Z,1005.3
2018-03-03T02:13:50.071Z,1005.2
2018-03-03T02:18:49.990Z,1005.2
2018-03-03T02:23:49.978Z,1005.3
2018-03-03T02:28:49.984Z,1005.3
2018-03-03T02:33:50.141Z,1005.3
2018-03-03T02:38:50.178Z,1005.2
2018-03-03T02:43:50.267Z,1005.3
2018-03-03T02:48:50.271Z,1005.4
2018-03-03T02:53:50.177Z,1005.4
2018-03-03T02:58:50.029Z,1005.3
2018-03-03T03:03:54.754Z,1005.3
2018-03-03T03:09:00.127Z,1005.4
2018-03-03T03:14:05.145Z,1005.3
2018-03-03T03:18:59.979Z,1005.2
2018-03-03T03:23:59.835Z,1005.2
2018-03-03T03:29:00.051Z,1005.2
2018-03-03T03:33:59.843Z,1005.2
2018-03-03T03:38:59.866Z,1005.2
2018-03-03T03:43:59.850Z,1005.1
2018-03-03T03:49:00.157Z,1005.1
2018-03-03T03:54:00.000Z,1005.1
2018-03-03T03:59:00.065Z,1005
2018-03-03T04:04:00.066Z,1005.1
2018-03-03T04:08:59.990Z,1005
2018-03-03T04:14:00.050Z,1005
2018-03-03T04:19:00.138Z,1005
2018-03-03T04:23:59.837Z,1004.9
2018-03-03T04:28:59.836Z,1004.8
2018-03-03T04:33:59.931Z,1004.8
2018-03-03T04:39:00.117Z,1004.7
2018-03-03T04:44:00.147Z,1004.6
2018-03-03T04:49:00.391Z,1004.6
2018-03-03T04:54:00.725Z,1004.7
2018-03-03T04:59:00.444Z,1004.7
2018-03-03T05:04:00.499Z,1004.6
2018-03-03T05:09:00.236Z,1004.4
2018-03-03T05:14:00.460Z,1004.5
2018-03-03T05:19:00.255Z,1004.4
2018-03-03T05:24:00.419Z,1004.5
2018-03-03T05:29:00.253Z,1004.4
2018-03-03T05:34:00.359Z,1004.3
2018-03-03T05:39:00.252Z,1004.3
2018-03-03T05:44:00.279Z,1004.3
2018-03-03T05:49:00.458Z,1004.3
2018-03-03T05:54:00.390Z,1004.1
2018-03-03T05:59:00.273Z,1004.1
2018-03-03T06:04:00.297Z,1004.3
2018-03-03T06:09:00.532Z,1004.2
2018-03-03T06:14:00.416Z,1004.1
2018-03-03T06:19:00.544Z,1004.3
2018-03-03T06:24:00.405Z,1004.2
2018-03-03T06:29:00.730Z,1004.1
2018-03-03T06:34:00.685Z,1004
2018-03-03T06:39:00.707Z,1003.9
2018-03-03T06:44:00.755Z,1003.8
2018-03-03T06:49:00.556Z,1003.8
2018-03-03T06:54:00.885Z,1003.8
2018-03-03T06:59:00.961Z,1003.9
2018-03-03T07:04:00.748Z,1003.9
2018-03-03T07:09:01.473Z,1003.8
2018-03-03T07:14:00.954Z,1003.8
2018-03-03T07:19:01.000Z,1003.7
2018-03-03T07:24:00.915Z,1003.6
2018-03-03T07:29:00.776Z,1003.5
2018-03-03T07:34:00.992Z,1003.5
2018-03-03T07:39:02.961Z,1003.4
2018-03-03T07:44:00.853Z,1003.5
2018-03-03T07:49:00.928Z,1003.4
2018-03-03T07:54:01.080Z,1003.4
2018-03-03T07:59:01.872Z,1003.3
2018-03-03T08:04:06.667Z,1003.2
2018-03-03T08:09:01.591Z,1003
2018-03-03T08:14:01.777Z,1002.9
2018-03-03T08:19:01.747Z,1002.8
2018-03-03T08:24:01.579Z,1003.1
2018-03-03T08:29:01.603Z,1003
2018-03-03T08:34:01.677Z,1003.1
2018-03-03T08:39:01.797Z,1003.1
2018-03-03T08:44:01.722Z,1003
2018-03-03T08:49:01.646Z,1002.9
2018-03-03T08:54:01.732Z,1002.8
2018-03-03T08:59:01.681Z,1002.8
2018-03-03T09:04:01.701Z,1002.5
2018-03-03T09:09:02.034Z,1002.6
2018-03-03T09:14:01.676Z,1002.6
2018-03-03T09:19:01.703Z,1002.5
2018-03-03T09:24:01.712Z,1002.5
2018-03-03T09:29:01.710Z,1002.4
2018-03-03T09:34:01.732Z,1002.3
2018-03-03T09:39:01.699Z,1002.4
2018-03-03T09:44:01.714Z,1002.1
2018-03-03T09:49:01.704Z,1002
2018-03-03T09:54:01.687Z,1002.1
2018-03-03T09:59:01.686Z,1002.1
2018-03-03T10:04:01.710Z,1002.2
2018-03-03T10:09:01.717Z,1002
2018-03-03T10:14:01.771Z,1002.1
2018-03-03T10:19:01.758Z,1002.1
2018-03-03T10:24:01.816Z,1002.1
2018-03-03T10:29:01.694Z,1002.1
2018-03-03T10:34:01.701Z,1002
2018-03-03T10:39:01.738Z,1002
2018-03-03T10:44:01.785Z,1001.8
2018-03-03T10:49:01.724Z,1001.6
2018-03-03T10:54:01.736Z,1001.6
2018-03-03T10:59:01.778Z,1001.5
2018-03-03T11:04:01.859Z,1001.4
2018-03-03T11:09:01.930Z,1001.5
2018-03-03T11:14:01.801Z,1001.4
2018-03-03T11:19:01.801Z,1001.3
2018-03-03T11:24:01.883Z,1001.3
2018-03-03T11:29:01.947Z,1001.2
2018-03-03T11:34:01.822Z,1001.1
2018-03-03T11:39:02.145Z,1001.1
2018-03-03T11:44:01.816Z,1001.1
2018-03-03T11:49:01.832Z,1001
2018-03-03T11:54:02.023Z,1000.9
2018-03-03T11:59:01.957Z,1000.9
2018-03-03T12:04:01.836Z,1000.9
2018-03-03T12:09:01.822Z,1000.8
2018-03-03T12:14:01.856Z,1000.8
2018-03-03T12:19:01.830Z,1000.7
2018-03-03T12:24:01.857Z,1000.6
2018-03-03T12:29:01.832Z,1000.5
2018-03-03T12:34:01.851Z,1000.4
2018-03-03T12:39:01.795Z,1000.3
2018-03-03T12:44:02.109Z,1000.4
2018-03-03T12:49:02.519Z,1000.3
2018-03-03T12:54:07.136Z,1000.2
2018-03-03T12:59:02.516Z,1000.4
2018-03-03T13:04:02.118Z,1000.6
2018-03-03T13:09:02.185Z,1000.5
2018-03-03T13:14:02.254Z,1000.5
2018-03-03T13:19:02.288Z,1000.6
2018-03-03T13:24:02.172Z,1000.7
2018-03-03T13:29:02.101Z,1000.6
2018-03-03T13:34:02.104Z,1000.7
2018-03-03T13:39:02.349Z,1000.5
2018-03-03T13:44:02.292Z,1000.8
2018-03-03T13:49:03.622Z,1000.7
2018-03-03T13:54:02.227Z,1001
2018-03-03T13:59:02.236Z,1000.9
2018-03-03T14:04:02.214Z,1001
2018-03-03T14:09:02.204Z,1001
2018-03-03T14:14:02.256Z,1001
2018-03-03T14:19:05.192Z,1000.9
2018-03-03T14:24:04.860Z,1000.9
2018-03-03T14:29:02.283Z,1001
2018-03-03T14:34:02.206Z,1001
2018-03-03T14:39:02.299Z,1001.1
2018-03-03T14:44:02.254Z,1001.1
2018-03-03T14:49:02.266Z,1001.1
2018-03-03T14:54:02.220Z,1001.1
2018-03-03T14:59:02.250Z,1001.4
2018-03-03T15:04:02.262Z,1001.5
2018-03-03T15:09:02.409Z,1001.5
2018-03-03T15:14:02.265Z,1001.6
2018-03-03T15:19:02.291Z,1001.7
2018-03-03T15:24:02.606Z,1001.7
2018-03-03T15:29:05.279Z,1001.9
2018-03-03T15:34:02.309Z,1002.1
2018-03-03T15:39:02.447Z,1002.1
2018-03-03T15:44:02.411Z,1002.2
2018-03-03T15:49:02.284Z,1002.1
2018-03-03T15:54:02.299Z,1002.1
2018-03-03T15:59:02.414Z,1002.1
2018-03-03T16:04:02.314Z,1002.2
2018-03-03T16:09:02.400Z,1002.2
2018-03-03T16:14:02.366Z,1002.3
2018-03-03T16:19:02.297Z,1002.5
2018-03-03T16:24:02.381Z,1002.5
2018-03-03T16:29:02.359Z,1002.7
2018-03-03T16:34:05.311Z,1002.7
2018-03-03T16:39:02.488Z,1002.8
2018-03-03T16:44:02.871Z,1002.8
2018-03-03T16:49:02.767Z,1002.8
2018-03-03T16:54:02.432Z,1002.8
2018-03-03T16:59:02.442Z,1002.8
2018-03-03T17:04:02.500Z,1002.9
2018-03-03T17:09:02.457Z,1003.1
2018-03-03T17:14:02.475Z,1003.2
2018-03-03T17:19:02.401Z,1003.4
2018-03-03T17:24:02.482Z,1003.4
2018-03-03T17:29:02.446Z,1003.5
2018-03-03T17:34:02.495Z,1003.5
2018-03-03T17:39:02.482Z,1003.7
2018-03-03T17:44:02.435Z,1003.7
2018-03-03T17:49:05.122Z,1003.9
2018-03-03T17:54:10.190Z,1003.9
2018-03-03T17:59:05.155Z,1003.8
2018-03-03T18:04:05.267Z,1004
2018-03-03T18:09:05.355Z,1004
2018-03-03T18:14:05.106Z,1004.2
2018-03-03T18:19:05.091Z,1004.2
2018-03-03T18:24:05.105Z,1004.3
2018-03-03T18:29:05.220Z,1004.3
2018-03-03T18:34:05.144Z,1004.5
2018-03-03T18:39:05.104Z,1004.6
2018-03-03T18:44:05.135Z,1004.6
2018-03-03T18:49:05.247Z,1004.6
2018-03-03T18:54:05.854Z,1004.8
2018-03-03T18:59:05.122Z,1004.6
2018-03-03T19:04:05.259Z,1004.8
2018-03-03T19:09:05.111Z,1004.9
2018-03-03T19:14:05.381Z,1005
2018-03-03T19:19:05.417Z,1005.2
2018-03-03T19:24:05.100Z,1005.2
2018-03-03T19:29:05.339Z,1005.3
2018-03-03T19:34:05.114Z,1005.3
2018-03-03T19:39:05.215Z,1005.4
2018-03-03T19:44:05.137Z,1005.5
2018-03-03T19:49:05.146Z,1005.5
2018-03-03T19:54:06.511Z,1005.7
2018-03-03T19:59:05.143Z,1005.8
2018-03-03T20:04:05.151Z,1006
2018-03-03T20:09:05.161Z,1006.1
2018-03-03T20:14:05.151Z,1006.1
2018-03-03T20:19:05.164Z,1006.2
2018-03-03T20:24:05.166Z,1006.2
2018-03-03T20:29:05.205Z,1006.3
2018-03-03T20:34:05.177Z,1006.4
2018-03-03T20:39:05.173Z,1006.3
2018-03-03T20:44:05.183Z,1006.4
2018-03-03T20:49:05.221Z,1006.6
2018-03-03T20:54:05.125Z,1006.7
2018-03-03T20:59:05.218Z,1006.7
2018-03-03T21:04:05.157Z,1006.8
2018-03-03T21:09:05.166Z,1006.8
2018-03-03T21:14:05.208Z,1006.8
2018-03-03T21:19:05.192Z,1007
2018-03-03T21:24:05.210Z,1007
2018-03-03T21:29:05.462Z,1007.1
2018-03-03T21:34:05.198Z,1007.1
2018-03-03T21:39:05.335Z,1007.2
2018-03-03T21:44:05.186Z,1007.2
2018-03-03T21:49:07.942Z,1007.3
2018-03-03T21:54:05.203Z,1007.4
2018-03-03T21:59:06.837Z,1007.4
2018-03-03T22:04:05.216Z,1007.5
2018-03-03T22:09:05.199Z,1007.5
2018-03-03T22:14:05.217Z,1007.5
2018-03-03T22:19:06.828Z,1007.4
2018-03-03T22:24:05.222Z,1007.5
2018-03-03T22:29:06.516Z,1007.5
2018-03-03T22:34:05.704Z,1007.5
2018-03-03T22:39:05.218Z,1007.6
2018-03-03T22:44:05.631Z,1007.6
2018-03-03T22:49:11.625Z,1007.8
2018-03-03T22:54:05.822Z,1007.8
2018-03-03T22:59:05.641Z,1007.8
2018-03-03T23:04:05.615Z,1007.8
2018-03-03T23:09:06.432Z,1007.9
2018-03-03T23:14:05.701Z,1008
2018-03-03T23:19:05.736Z,1007.9
2018-03-03T23:24:05.611Z,1007.9
2018-03-03T23:29:05.609Z,1008
2018-03-03T23:34:05.641Z,1008.1
2018-03-03T23:39:05.622Z,1008.1
2018-03-03T23:44:05.799Z,1008.1
2018-03-03T23:49:05.654Z,1008.3
2018-03-03T23:54:05.632Z,1008.3
2018-03-03T23:59:05.734Z,1008.3
